Weather observations for the past three days for
Marion / Wytheville
Imperial (Metric)
Date Time (edt) Wind (mph) Vis. (mi.) Weather Sky Cond. Temperature (ºF) Relative Humidity Wind Chill (°F) Heat Index (°F) Pressure Precipitation (in)
Air Dwpt 6 hour altimeter (in) sea level (mb) 1 hr 3 hr 6 hr
Max. Min.
09 01:35 Calm 10.00 Fair CLR 46.9 41.4 81% 29.97 0.0
09 01:15 Calm 10.00 Fair CLR 46.8 41.7 83% 29.98 0.0
09 00:55 Calm 10.00 Fair CLR 48.6 41.2 76% 29.97 0.0
09 00:35 Calm 10.00 Fair CLR 48.4 40.8 75% 29.97 0.0
09 00:15 Calm 10.00 Fair CLR 49.1 40.5 72% 29.97 0.0
08 23:55 Calm 10.00 Fair CLR 50.4 40.1 68% 29.98 0.0
08 23:35 Calm 10.00 Fair CLR 49.8 39.7 68% 29.98 0.0
08 23:15 Calm 10.00 Fair CLR 50.9 39.6 65% 29.98 0.0
08 22:55 Calm 10.00 Fair CLR 51.4 39 63% 29.98 0.0
08 22:35 Calm 10.00 Fair CLR 52.2 38.3 59% 29.99 0.0
08 22:15 SW 3 10.00 Fair CLR 54.7 37.8 53% 29.98 0.0
08 21:55 S 6 10.00 Fair CLR 56.1 37.2 49% 29.98 0.0
08 21:35 Calm 10.00 Fair CLR 56.3 36.1 47% 29.98 0.0
08 21:15 Calm 10.00 Fair CLR 56.7 34.7 44% 29.98 0.0
08 20:55 S 5 10.00 Fair CLR 56.8 32.5 40% 29.97 0.0
08 20:35 Calm 10.00 Fair CLR 57.7 30.9 36% 29.97 0.0
08 20:15 S 3 10.00 Fair CLR 59 30 33% 29.97 0.0
08 19:55 Calm 10.00 Fair CLR 60.4 32.9 64.6 60.4 36% 29.97 0.0
08 19:35 SW 6 10.00 Fair CLR 61 33.4 36% 29.97 0.0
08 19:15 W 7 10.00 Fair CLR 62.2 32.5 33% 29.97 0.0
08 18:55 W 9 10.00 Fair CLR 62.8 32.9 33% 29.97 0.0
08 18:35 W 9 10.00 Fair CLR 63.1 31.8 31% 29.96 0.0
08 18:15 W 12 10.00 Fair CLR 63.5 32 31% 29.95 0.0
08 17:55 W 10 10.00 Fair CLR 63.5 32 31% 29.95 0.0
08 17:35 W 10 10.00 Fair CLR 63.5 31.3 30% 29.95 0.0
08 17:15 W 9 10.00 Fair CLR 63.9 33.8 33% 29.95 0.0
08 16:55 W 9 10.00 Fair CLR 64 32.5 31% 29.96 0.0
08 16:35 W 12 G 16 10.00 Fair CLR 63.9 31.5 30% 29.97 0.0
08 16:15 W 5 10.00 Fair CLR 63.3 27 25% 29.98 0.0
08 15:55 W 6 10.00 Fair CLR 63.7 29.5 28% 29.98 0.0
08 15:35 SW 3 10.00 Fair CLR 63.9 28.4 26% 29.99 0.0
08 15:15 W 9 10.00 Fair CLR 63.7 26.2 24% 30 0.0
08 14:55 W 10 10.00 Fair CLR 63.1 23.9 22% 30.01 0.0
08 14:35 SW 3 10.00 Fair CLR 62.6 23.7 23% 30.01 0.0
08 14:15 Calm 10.00 Fair CLR 61.3 25.3 25% 30.02 0.0
08 13:55 NW 7 10.00 Fair CLR 60.8 25.5 61.3 38.3 26% 30.03 0.0
08 13:35 W 6 10.00 Fair CLR 60.3 29.8 32% 30.04 0.0
08 13:15 W 5 10.00 Fair CLR 59.4 27 29% 30.05 0.0
08 12:55 N 5 10.00 Fair CLR 59.4 27.9 30% 30.06 0.0
08 12:35 Calm 10.00 Fair CLR 58.5 28 31% 30.07 0.0
08 12:15 W 6 10.00 Fair CLR 57.7 28.4 33% 30.08 0.0
08 11:55 W 5 10.00 Fair CLR 57.6 29.7 35% 30.09 0.0
08 11:35 W 5 10.00 Fair CLR 56.7 30.2 37% 30.09 0.0
08 11:15 SE 3 10.00 Fair CLR 55.4 28 35% 30.09 0.0
08 10:55 S 3 10.00 Fair CLR 55 31.1 40% 30.09 0.0
08 10:35 SW 5 10.00 Fair CLR 54.1 31.8 43% 30.09 0.0
08 10:15 S 3 10.00 Fair CLR 52.7 31.1 44% 30.09 0.0
08 09:55 W 5 10.00 Fair CLR 52.3 33.3 48% 30.09 0.0
08 09:35 SW 6 10.00 Fair CLR 50.7 31.6 48% 30.09 0.0
08 09:15 W 3 10.00 Fair CLR 48.9 36.9 63% 30.08 0.0
08 08:55 W 5 10.00 Fair CLR 45.9 41.9 86% 44 30.08 0.0
08 08:35 W 3 10.00 Fair CLR 43.3 41 92% 30.09 0.0
08 08:15 Calm 10.00 Fair CLR 39.9 37.8 92% 30.09 0.0
08 07:55 W 3 10.00 Fair CLR 38.1 36 39 32.2 92% 30.08 0.0
08 07:35 Calm 10.00 Fair CLR 34.5 32.4 92% 30.07 0.0
08 07:15 W 3 7.00 Fair CLR 34.2 32 92% 30.07 0.0
08 06:55 Calm 10.00 Fair CLR 32.7 31.1 94% 30.07 0.0
08 06:35 Calm 10.00 Fair CLR 32.7 31.1 94% 30.06 0.0
08 06:15 Calm 7.00 Fair CLR 32.9 31.5 94% 30.06 0.0
08 05:55 Calm 7.00 Partly Cloudy SCT002 33.3 31.6 94% 30.06 0.0
08 05:35 Calm 1.75 Fog/Mist NULL 33.1 31.5 94% 30.05 0.0
08 05:15 Calm 1.75 Fog/Mist NULL 33.8 32 93% 30.06 0.0
08 04:55 Calm 0.50 Fog OVC001 33.6 31.8 93% 30.05 0.0
08 04:35 Calm 0.50 Fog OVC003 33.4 31.8 94% 30.05 0.0
08 04:15 Calm 1.75 Fog/Mist BKN003 34.3 32.2 92% 30.05 0.0
08 03:55 Calm 0.50 Fog OVC003 34.2 32.2 92% 30.05 0.0
08 03:35 Calm 0.50 Fog OVC003 34.9 32.7 92% 30.04 0.0
08 03:15 Calm 1.00 Fog/Mist BKN003 36.3 34.2 92% 30.04 0.0
08 02:55 Calm 2.50 Fog/Mist SCT001 36.9 34.7 92% 30.03 0.0
08 02:35 Calm 0.75 Fog/Mist OVC001 36.9 34.9 93% 30.04 0.0
08 02:15 Calm 0.25 Fog NULL 37.9 35.8 92% 30.03 0.0
08 01:55 Calm 0.25 Fog NULL 38.7 36.5 51.4 38.7 92% 30.04 0.0
08 01:35 Calm 0.25 Fog NULL 39.4 37.2 92% 30.04 0.0
08 01:15 Calm 0.25 Fog NULL 40.6 38.5 92% 30.04 0.0
08 00:55 Calm 5.00 Fog/Mist SCT001 BKN050 41 38.8 92% 30.03 0.0
08 00:35 Calm 7.00 Partly Cloudy SCT050 41.7 39.4 91% 30.02 0.0
08 00:15 Calm 10.00 Overcast OVC050 41.7 39.4 91% 30.02 0.0
07 23:55 Calm 10.00 Mostly Cloudy BKN050 41.9 39.7 92% 30.02 0.0
07 23:35 Calm 10.00 Partly Cloudy SCT005 SCT050 41.9 39.7 92% 30.02 0.0
07 23:15 Calm 10.00 Fair CLR 42.3 39.9 91% 30.01 0.0
07 22:55 Calm 10.00 Fair CLR 42.6 40.3 91% 30.01 0.0
07 22:35 Calm 10.00 Fair CLR 42.6 40.3 91% 30 0.0
07 22:15 Calm 10.00 Fair CLR 43.5 41 91% 30 0.0
07 21:55 Calm 10.00 Partly Cloudy SCT050 44.6 41 87% 29.99 0.0
07 21:35 Calm 10.00 Fair CLR 44.4 41.5 90% 29.98 0.0
07 21:15 Calm 10.00 Fair CLR 45.9 40.3 81% 29.97 0.0
07 20:55 Calm 10.00 Fair CLR 47.3 39.9 76% 29.96 0.0
07 20:35 Calm 10.00 Fair CLR 48.4 39.4 71% 29.96 0.0
07 20:15 SW 5 10.00 Partly Cloudy SCT043 SCT049 49.5 37.8 64% 48 29.96 0.0
07 19:55 W 8 10.00 Mostly Cloudy SCT043 BKN049 51.4 37.8 54 49.1 60% 29.96 0.0 0.01
07 19:35 W 8 G 16 10.00 Mostly Cloudy SCT039 BKN047 52.3 37.9 58% 29.96 0.0
07 19:15 W 7 10.00 Mostly Cloudy SCT035 BKN047 52.2 39.4 62% 29.96 0.0
07 18:55 W 8 10.00 Mostly Cloudy SCT035 BKN047 53.1 39.4 60% 29.95 0.0
07 18:35 W 12 G 18 10.00 Mostly Cloudy BKN045 51.6 38.8 62% 29.95 0.0
07 18:15 W 8 10.00 Overcast OVC041 51.8 39.6 63% 29.94 0.0
07 17:55 W 13 G 20 10.00 Mostly Cloudy BKN041 51.8 39.2 62% 29.94 0.0
07 17:35 W 10 G 20 10.00 Partly Cloudy SCT027 SCT037 54 40.5 60% 29.93 0.0
07 17:15 W 7 10.00 Mostly Cloudy SCT020 SCT027 BKN037 52.9 43.2 70% 29.93 0.0
07 16:15 W 6 10.00 Overcast OVC018 49.6 43 78% 48 29.93 0.0
07 15:55 W 7 10.00 Overcast OVC016 50 43.3 78% 48 29.93 0.0
07 15:35 NW 7 10.00 Overcast OVC016 49.3 43.3 80% 47 29.93 0.0
07 15:15 W 6 10.00 Overcast BKN016 OVC022 49.3 43.3 80% 47 29.94 0.0
07 14:55 NW 6 10.00 Overcast OVC020 49.6 43.5 80% 48 29.94 0.0 0.01
07 14:35 W 8 10.00 Overcast OVC020 49.3 43.7 81% 46 29.94 0.0 0.01
07 14:15 W 9 10.00 Overcast OVC018 49.6 44.1 81% 46 29.93 0.0
07 13:55 W 9 10.00 Overcast OVC016 51.1 45.9 51.4 48.7 82% 29.93 0.0
07 13:35 W 13 G 16 10.00 Overcast OVC012 51.3 46 82% 29.93 0.0
07 13:15 NW 9 10.00 Light Drizzle OVC010 50.5 47.1 88% 29.93 0.0
07 12:55 NW 8 10.00 Overcast OVC008 50.5 47.8 91% 29.93 0.0
07 12:35 NW 7 10.00 Overcast OVC008 51.1 48.4 91% 29.93 0.0
07 12:15 NW 7 10.00 Overcast OVC008 50.2 47.8 92% 29.93 0.0
07 11:55 W 5 10.00 Overcast BKN008 BKN012 OVC017 50 47.7 92% 49 29.93 0.0
07 11:35 W 5 7.00 Overcast SCT010 OVC017 49.8 47.5 92% 49 29.93 0.0
07 11:15 NW 3 5.00 Drizzle BKN008 OVC017 48.9 46.6 92% 29.93 0.0
07 10:55 W 7 7.00 Light Rain OVC008 49.8 47.5 92% 47 29.94 0.0
07 10:35 NW 6 10.00 Overcast OVC008 51.3 48.9 92% 29.93 0.0
07 10:15 NW 6 10.00 Overcast OVC008 50.9 48.6 92% 29.93 0.0
07 09:55 W 5 10.00 Overcast OVC008 51.1 48.7 92% 29.93 0.0
07 09:35 W 8 10.00 Overcast BKN008 OVC016 51.1 48.7 92% 29.93 0.0
07 09:15 Calm 7.00 Overcast BKN008 OVC016 50.9 48.6 92% 29.93 0.0
07 08:55 W 7 10.00 Overcast SCT008 OVC016 50.9 48.4 91% 29.93 0.0
07 08:35 NW 3 10.00 Overcast OVC016 51.1 48.7 92% 29.93 0.0
07 08:15 SW 3 10.00 Overcast SCT008 OVC016 50.9 48.6 92% 29.94 0.0
07 07:55 Calm 10.00 Overcast OVC016 50.7 48.4 58.6 50.5 92% 29.94 0.0 0.03
07 07:35 W 6 10.00 Light Drizzle OVC014 50.5 48.2 92% 29.93 0.0
07 07:15 W 5 10.00 Overcast OVC014 51.3 49.1 92% 29.92 0.0
07 06:55 W 3 10.00 Overcast OVC014 51.4 49.1 92% 29.92 0.0
07 06:35 W 7 10.00 Rain OVC014 51.8 49.3 91% 29.93 0.0
07 06:15 Calm 10.00 Overcast OVC014 51.6 49.1 91% 29.91 0.0
07 05:55 Calm 10.00 Overcast OVC012 52 49.6 92% 29.91 0.0
07 05:35 Calm 10.00 Overcast OVC012 52.3 50 92% 29.91 0.0
07 05:15 NW 5 10.00 Overcast OVC010 52.9 50.5 92% 29.93 0.0
07 04:55 NW 7 10.00 Overcast OVC010 53.6 51.1 91% 29.91 0.0 0.03
07 04:35 Calm 10.00 Overcast BKN012 OVC017 54.1 51.8 92% 29.91 0.0
07 04:15 Calm 10.00 Overcast SCT010 OVC019 54.5 52.2 92% 29.9 0.0
07 03:55 Calm 10.00 Light Rain BKN008 BKN021 OVC039 54.5 52.2 92% 29.91 0.0
07 03:35 Calm 10.00 Overcast OVC008 54.7 52.3 92% 29.91 0.0
07 03:15 N 5 10.00 Overcast BKN008 OVC017 55.2 52.9 92% 29.92 0.0
07 02:55 W 6 10.00 Rain SCT008 BKN015 OVC024 56.8 54.5 92% 29.91 0.0 0.03
07 02:35 W 9 7.00 Heavy Rain BKN006 OVC014 58.5 56.1 92% 29.9 0.0 0.01
07 02:15 W 10 10.00 Overcast SCT006 OVC014 58.5 56.3 93% 29.91 0.0
07 01:55 W 5 10.00 Overcast BKN006 BKN009 OVC016 58.6 56.3 63.1 56.7 92% 29.92 0.0 0.19
07 01:35 SW 6 10.00 Overcast BKN006 OVC009 58.5 56.3 93% 29.91 0.0
07 01:15 SW 9 10.00 Overcast OVC006 58.6 56.3 92% 29.93 0.0
07 00:55 W 9 10.00 Overcast OVC006 58.5 56.3 93% 29.95 0.0
07 00:35 W 10 G 16 10.00 Overcast OVC006 58.3 55.9 92% 29.95 0.0
07 00:15 W 6 10.00 Light Drizzle BKN008 BKN012 OVC070 58.1 55.6 91% 29.94 0.0
06 23:55 Calm 10.00 Overcast OVC060 56.7 54.5 93% 29.93 0.0 0.01
06 23:35 W 3 10.00 Overcast OVC060 57.2 54.7 91% 29.95 0.0 0.01
06 23:15 SW 3 10.00 Overcast SCT010 OVC050 57.6 55.2 92% 29.95 0.0
06 22:55 W 9 7.00 Light Rain BKN006 BKN011 OVC048 58.6 56.1 91% 29.95 0.0 0.07 0.18
06 22:35 W 12 G 21 10.00 Light Rain OVC006 59.9 57.4 91% 29.98 0.0 0.03
06 22:15 W 15 G 23 7.00 Rain OVC008 60.1 57.7 92% 29.97 0.0 0.01
06 21:55 SW 10 G 18 10.00 Light Rain BKN010 BKN013 OVC018 60.4 58.1 92% 29.96 0.0 0.11
06 21:35 W 9 3.00 Heavy Rain OVC012 60.3 57.7 91% 29.95 0.0 0.1
06 21:15 W 9 7.00 Rain OVC015 61.3 59 92% 29.95 0.0 0.01
06 20:55 W 7 10.00 Overcast OVC018 62.6 59.4 89% 29.94 0.0
06 20:35 W 6 10.00 Light Drizzle BKN018 OVC022 62.6 59.2 89% 29.93 0.0
06 20:15 SW 6 10.00 Overcast OVC018 63 59.4 88% 29.93 0.0
06 19:55 SW 3 10.00 Overcast BKN018 OVC036 63.1 59.2 65.7 61.7 87% 29.92 0.0
06 19:35 W 7 10.00 Overcast OVC018 63.5 59.2 86% 29.93 0.0
06 19:15 W 8 10.00 Overcast BKN020 OVC039 63.7 59 85% 29.93 0.0
06 18:55 W 7 10.00 Overcast BKN018 BKN024 OVC034 63.9 59 84% 29.93 0.0
06 18:35 SW 9 10.00 Overcast OVC016 63.9 59 84% 29.93 0.0
06 18:15 W 9 G 18 10.00 Overcast BKN016 OVC023 64.6 59.4 83% 29.93 0.0
06 17:55 W 13 G 20 10.00 Overcast BKN016 BKN022 OVC049 64 59.2 84% 29.95 0.0
06 17:35 W 13 G 20 10.00 Overcast BKN018 OVC023 64 59.2 84% 29.94 0.0
06 17:15 W 10 G 22 10.00 Overcast BKN018 BKN025 OVC038 63.7 58.6 84% 29.93 0.0
06 16:55 W 12 G 24 10.00 Overcast SCT016 BKN025 OVC041 65.7 59.5 81% 29.93 0.0
06 16:35 W 15 10.00 Overcast BKN016 OVC024 64.2 59.4 84% 29.92 0.0
06 16:15 W 12 G 16 10.00 Overcast BKN018 OVC025 63.7 59.2 85% 29.93 0.0
06 15:55 W 13 G 24 10.00 Overcast BKN018 BKN025 OVC032 64.6 58.8 82% 29.94 0.0
06 15:35 SW 9 G 20 10.00 Overcast BKN016 OVC023 63.9 59 84% 29.94 0.0
06 15:15 W 12 G 20 10.00 Overcast OVC016 62.8 59 88% 29.94 0.0
06 14:55 W 13 G 20 10.00 Overcast OVC016 62.1 58.6 89% 29.94 0.0
06 14:35 W 15 G 21 10.00 Overcast OVC014 61.7 58.3 89% 29.93 0.0
06 14:15 W 14 10.00 Overcast BKN012 OVC018 61.7 59.2 92% 29.93 0.0
06 13:55 W 13 G 20 10.00 Overcast BKN010 BKN015 OVC025 61.9 59.4 62.1 54.1 92% 29.94 0.0 0.18
06 13:35 SW 9 10.00 Overcast SCT012 BKN019 OVC026 60.4 58.1 92% 29.94 0.0
06 13:15 W 9 G 17 10.00 Light Rain SCT009 BKN014 OVC019 59.2 57 93% 29.95 0.0
06 12:55 W 8 10.00 Light Drizzle SCT010 OVC017 58.3 55.9 92% 29.97 0.0 0.03
06 12:35 SW 5 7.00 Light Rain SCT007 OVC013 57.2 54.7 91% 29.99 0.0 0.03
06 12:15 SW 6 7.00 Light Rain SCT004 BKN008 OVC019 57.6 55.2 92% 30 0.0 0.01
06 11:55 SW 6 10.00 Rain OVC023 57.4 55 92% 29.99 0.0 0.01
06 11:35 W 6 10.00 Light Rain OVC023 57.9 55.4 91% 29.98 0.0
06 11:15 SW 5 10.00 Light Drizzle OVC025 57.6 55.2 92% 29.97 0.0
06 10:55 SW 3 10.00 Light Rain OVC027 56.8 54.5 92% 29.96 0.0 0.14
06 10:35 S 3 10.00 Overcast OVC029 57.4 54.9 91% 29.96 0.0
06 10:15 W 5 10.00 Overcast SCT005 SCT018 OVC029 56.8 54.5 92% 29.96 0.0
06 09:35 SW 3 5.00 Light Rain SCT025 BKN037 OVC060 55.2 52.7 91% 29.96 0.0 0.04
06 09:15 Calm 2.50 Rain SCT031 BKN050 OVC085 54.5 52.2 92% 29.96 0.0 0.03
06 08:55 W 5 5.00 Rain SCT022 BKN039 OVC060 54.5 52.2 92% 29.97 0.0 0.08
06 08:35 W 3 10.00 Rain SCT027 BKN065 OVC080 54.3 52 92% 29.95 0.0 0.06
06 08:15 SW 3 5.00 Rain SCT021 BKN060 OVC100 54.5 52 91% 29.94 0.0 0.04
06 07:55 W 6 7.00 Rain SCT050 OVC090 54.5 52.2 63 54.5 92% 29.94 0.0 0.04 0.04
06 07:35 SW 5 10.00 Light Rain SCT038 SCT048 OVC090 55 51.4 88% 29.94 0.0 0.02
06 07:15 SW 5 7.00 Rain BKN040 BKN048 OVC090 57.2 49.3 75% 29.93 0.0
06 06:55 Calm 10.00 Light Rain OVC040 58.3 47.8 68% 29.91 0.0
06 06:35 Calm 10.00 Overcast OVC044 57.4 48 71% 29.9 0.0
06 06:15 Calm 10.00 Overcast BKN048 OVC060 59 46.2 63% 29.89 0.0
06 05:55 Calm 10.00 Overcast SCT046 BKN050 OVC090 59.4 45.5 60% 29.89 0.0
06 05:35 Calm 10.00 Overcast OVC046 60.4 44.2 55% 29.89 0.0
06 05:15 Calm 10.00 Overcast OVC046 60.3 44.1 55% 29.9 0.0
06 04:55 Calm 10.00 Overcast SCT050 BKN060 OVC110 59.9 45.1 58% 29.9 0.0
06 04:35 Calm 10.00 Overcast BKN050 OVC110 61.7 43 50% 29.9 0.0
06 04:15 Calm 10.00 Overcast OVC050 61.7 43 50% 29.91 0.0
06 03:55 Calm 10.00 Mostly Cloudy BKN050 BKN060 BKN070 63 42.3 47% 29.9 0.0
06 03:35 S 5 10.00 Overcast BKN050 BKN070 OVC110 61.9 41.9 48% 29.9 0.0
06 03:15 Calm 10.00 Mostly Cloudy SCT075 SCT085 BKN110 59.9 42.3 52% 29.91 0.0
06 02:55 Calm 10.00 Mostly Cloudy SCT060 SCT085 BKN110 62.4 41.4 46% 29.91 0.0
06 02:35 Calm 10.00 Mostly Cloudy SCT060 SCT070 BKN100 62.2 41.2 46% 29.91 0.0
06 01:55 Calm 10.00 Overcast OVC060 59.2 41.9 65.8 58.5 53% 29.93 0.0
Date Time (edt) Wind (mph) Vis. (mi.) Weather Sky Cond. Air Dwpt Max. Min. Relative Humidity Wind Chill (°F) Heat Index (°F) altimeter (in) sea level (mb) 1 hr 3 hr 6 hr
6 hour
Temperature (ºF) Pressure Precipitation (in)